Time;durP1;ratioP1;P1;durP2;ratioP2;P2;SDS_P1;SDS_P2;PMS_P1;PMS_P2;Temp;Humidity;BMP_temperature;BMP_pressure;BME280_temperature;BME280_humidity;BME280_pressure;Samples;Min_cycle;Max_cycle;Signal;HPM_P1;HPM_P2
2023/01/03 00:00:45;;;;;;;3.65;1.20;;;3.80;99.90;;;;;;5035781;28;20052;-68
2023/01/03 00:03:16;;;;;;;4.18;1.23;;;3.80;99.90;;;;;;5035368;28;20117;-68
2023/01/03 00:05:45;;;;;;;2.55;1.63;;;3.80;99.90;;;;;;5017710;28;20076;-68
2023/01/03 00:08:11;;;;;;;3.55;1.48;;;3.80;99.90;;;;;;5017600;28;20385;-68
2023/01/03 00:10:37;;;;;;;7.82;1.73;;;3.70;99.90;;;;;;5035491;28;20116;-68
2023/01/03 00:13:04;;;;;;;4.28;1.55;;;3.70;99.90;;;;;;5035229;28;20045;-68
2023/01/03 00:15:33;;;;;;;3.22;1.55;;;3.70;99.90;;;;;;5035432;28;20115;-68
2023/01/03 00:17:58;;;;;;;4.85;1.40;;;3.70;99.90;;;;;;5035370;28;20091;-68
2023/01/03 00:20:24;;;;;;;2.85;1.33;;;3.60;99.90;;;;;;5017659;28;20041;-68
2023/01/03 00:22:49;;;;;;;2.20;0.90;;;3.70;99.90;;;;;;5035065;28;20037;-65
2023/01/03 00:25:15;;;;;;;1.65;1.20;;;3.60;99.90;;;;;;5017302;28;20042;-67
2023/01/03 00:27:40;;;;;;;4.22;1.35;;;3.60;99.90;;;;;;5017518;28;20044;-68
2023/01/03 00:30:07;;;;;;;7.72;1.48;;;3.60;99.90;;;;;;5017203;28;20044;-68
2023/01/03 00:32:32;;;;;;;7.97;1.90;;;3.50;99.90;;;;;;5034681;28;20507;-68
2023/01/03 00:34:58;;;;;;;2.25;1.40;;;3.50;99.90;;;;;;5035067;28;20128;-66
2023/01/03 00:37:23;;;;;;;2.25;1.35;;;3.50;99.90;;;;;;5034674;28;20033;-67
2023/01/03 00:39:49;;;;;;;1.92;1.20;;;3.40;99.90;;;;;;5017255;28;20034;-66
2023/01/03 00:42:14;;;;;;;2.85;1.38;;;3.40;99.90;;;;;;5016989;28;20120;-68
2023/01/03 00:44:40;;;;;;;3.83;1.50;;;3.40;99.90;;;;;;5034986;28;20033;-66
2023/01/03 00:47:05;;;;;;;4.63;1.35;;;3.40;99.90;;;;;;5034796;28;20048;-65
2023/01/03 00:49:31;;;;;;;2.97;1.10;;;3.40;99.90;;;;;;5034825;28;20045;-68
2023/01/03 00:51:57;;;;;;;4.57;1.45;;;3.30;99.90;;;;;;5034820;28;20120;-66
2023/01/03 00:54:23;;;;;;;1.88;1.52;;;3.30;99.90;;;;;;5016753;28;20094;-66
2023/01/03 00:56:50;;;;;;;2.92;1.35;;;3.30;99.90;;;;;;5034698;28;20072;-66
2023/01/03 00:59:17;;;;;;;1.50;0.98;;;3.30;99.90;;;;;;5034654;28;20452;-67
2023/01/03 01:01:45;;;;;;;2.08;1.60;;;3.30;99.90;;;;;;5034343;28;20038;-66
2023/01/03 01:04:19;;;;;;;2.58;1.50;;;3.30;99.90;;;;;;5034606;28;20038;-66
2023/01/03 01:06:53;;;;;;;2.90;1.38;;;3.30;99.90;;;;;;5034120;28;20045;-66
2023/01/03 01:09:30;;;;;;;3.50;1.70;;;3.30;99.90;;;;;;5034504;28;20049;-66
2023/01/03 01:11:56;;;;;;;3.75;1.15;;;3.30;99.90;;;;;;5034443;28;20117;-66
2023/01/03 01:14:24;;;;;;;5.22;1.92;;;3.30;99.90;;;;;;5034365;28;20072;-66
2023/01/03 01:16:53;;;;;;;2.28;1.55;;;3.30;99.90;;;;;;5034361;28;20062;-67
2023/01/03 01:19:39;;;;;;;2.50;1.92;;;3.40;99.90;;;;;;5034302;28;20405;-68
2023/01/03 01:22:05;;;;;;;4.28;1.75;;;3.40;99.90;;;;;;5034293;28;20152;-66
2023/01/03 01:24:31;;;;;;;5.43;2.22;;;3.40;99.90;;;;;;5033830;28;20045;-66
2023/01/03 01:26:57;;;;;;;5.90;2.22;;;3.40;99.90;;;;;;5034188;28;20041;-66
2023/01/03 01:29:23;;;;;;;4.55;2.03;;;3.50;99.90;;;;;;5034111;28;20370;-66
2023/01/03 01:31:49;;;;;;;3.67;2.15;;;3.50;99.90;;;;;;5016015;28;20054;-66
2023/01/03 01:34:15;;;;;;;5.57;2.45;;;3.60;99.90;;;;;;5033972;28;20037;-66
2023/01/03 01:36:42;;;;;;;5.05;2.22;;;3.60;99.90;;;;;;5034042;28;20033;-66
2023/01/03 01:39:12;;;;;;;5.13;2.53;;;3.60;99.90;;;;;;5016449;28;20451;-66
2023/01/03 01:44:58;;;;;;;9.20;2.80;;;3.70;99.90;;;;;;5033780;28;20127;-66
2023/01/03 01:47:33;;;;;;;5.20;2.65;;;3.70;99.90;;;;;;4953311;29;20070;-66
2023/01/03 01:50:14;;;;;;;4.20;2.75;;;3.70;99.90;;;;;;5022564;28;20057;-66
2023/01/03 01:53:06;;;;;;;8.95;3.67;;;3.70;99.90;;;;;;5033734;28;20093;-66
2023/01/03 01:56:07;;;;;;;4.65;2.45;;;3.70;99.90;;;;;;5033604;28;20034;-66
2023/01/03 01:58:38;;;;;;;4.22;2.38;;;3.60;99.90;;;;;;5012102;28;20053;-66
2023/01/03 02:01:08;;;;;;;4.70;2.75;;;3.60;99.90;;;;;;5033358;28;20063;-66
2023/01/03 02:03:33;;;;;;;5.10;3.08;;;3.50;99.90;;;;;;5015553;28;20394;-66
2023/01/03 02:06:01;;;;;;;6.90;2.63;;;3.50;99.90;;;;;;5033108;28;20060;-66
2023/01/03 02:08:27;;;;;;;9.43;3.17;;;3.50;99.90;;;;;;5015805;28;20485;-67
2023/01/03 02:11:08;;;;;;;6.93;2.90;;;3.50;99.90;;;;;;5033325;28;20034;-66
2023/01/03 02:13:55;;;;;;;7.97;3.20;;;3.50;99.90;;;;;;5033118;28;20045;-66
2023/01/03 02:16:39;;;;;;;4.40;2.22;;;3.40;99.90;;;;;;5033319;28;20774;-66
2023/01/03 02:19:28;;;;;;;5.20;3.33;;;3.40;99.90;;;;;;5015705;28;20076;-66
2023/01/03 02:22:09;;;;;;;6.35;2.97;;;3.30;99.90;;;;;;5019007;28;20850;-66
2023/01/03 02:24:57;;;;;;;5.43;3.05;;;2.90;99.90;;;;;;5033229;28;20040;-66
2023/01/03 02:27:31;;;;;;;5.70;3.25;;;3.30;99.90;;;;;;5032851;28;20041;-66
2023/01/03 02:30:24;;;;;;;4.97;2.17;;;3.30;99.90;;;;;;5033163;28;20049;-66
2023/01/03 02:32:55;;;;;;;5.03;2.75;;;3.30;99.90;;;;;;5033101;28;20048;-66
2023/01/03 02:35:42;;;;;;;6.53;2.90;;;3.30;99.90;;;;;;5033020;28;20037;-66
2023/01/03 02:38:16;;;;;;;7.78;3.10;;;3.20;99.90;;;;;;5015471;28;20106;-66
2023/01/03 02:40:54;;;;;;;7.78;3.03;;;3.20;99.90;;;;;;5033028;28;20041;-67
2023/01/03 02:43:47;;;;;;;6.32;3.42;;;3.20;99.90;;;;;;5015368;28;20056;-66
2023/01/03 02:46:30;;;;;;;8.23;3.55;;;3.20;99.90;;;;;;5022020;28;20049;-66
2023/01/03 02:49:11;;;;;;;4.25;3.03;;;3.10;99.90;;;;;;5033025;28;20513;-66
2023/01/03 02:51:49;;;;;;;7.93;3.30;;;3.10;99.90;;;;;;5032902;28;20045;-66
2023/01/03 02:54:23;;;;;;;5.68;2.97;;;3.10;99.90;;;;;;5032629;28;20041;-66
2023/01/03 02:56:54;;;;;;;7.88;3.00;;;3.10;99.90;;;;;;5015217;28;20094;-66
2023/01/03 02:59:31;;;;;;;6.43;3.67;;;3.10;99.90;;;;;;5015135;28;20049;-66
2023/01/03 03:01:59;;;;;;;9.25;3.78;;;3.10;99.90;;;;;;5032915;28;20481;-66
2023/01/03 03:04:26;;;;;;;7.22;3.13;;;3.10;99.90;;;;;;5032703;28;20050;-66
2023/01/03 03:07:12;;;;;;;7.95;4.30;;;3.10;99.90;;;;;;5032471;28;20132;-66
2023/01/03 03:13:11;;;;;;;6.38;3.17;;;3.10;99.90;;;;;;5032816;28;20046;-66
2023/01/03 03:15:14;;;;;;;10.75;3.30;;;3.00;99.90;;;;;;5036646;28;20486;-66
2023/01/03 03:17:43;;;;;;;5.78;3.72;;;3.10;99.90;;;;;;5036633;28;20042;-66
2023/01/03 03:26:00;;;;;;;9.30;3.40;;;3.00;99.90;;;;;;5036133;28;20049;-66
2023/01/03 03:28:34;;;;;;;6.38;3.22;;;2.90;99.90;;;;;;5036127;28;20045;-66
2023/01/03 03:31:12;;;;;;;6.88;3.80;;;2.90;99.90;;;;;;5036312;28;20041;-66
2023/01/03 03:33:45;;;;;;;8.70;3.65;;;2.90;99.90;;;;;;5036344;28;20525;-66
2023/01/03 03:36:33;;;;;;;14.73;4.15;;;2.80;99.90;;;;;;5036261;28;20029;-66
2023/01/03 03:38:59;;;;;;;6.85;3.33;;;2.80;99.90;;;;;;5035917;28;20122;-66
2023/01/03 03:47:40;;;;;;;10.68;3.97;;;2.80;99.90;;;;;;5036040;28;20053;-66
2023/01/03 03:50:33;;;;;;;11.13;3.63;;;2.80;99.90;;;;;;5035728;28;20045;-66
2023/01/03 03:53:03;;;;;;;7.47;3.40;;;2.80;99.90;;;;;;5036009;28;20049;-66
2023/01/03 03:55:53;;;;;;;8.85;4.00;;;2.90;99.90;;;;;;5035850;28;20034;-66
2023/01/03 03:58:48;;;;;;;6.85;3.85;;;2.90;99.90;;;;;;5035866;28;20042;-66
2023/01/03 04:01:17;;;;;;;7.70;3.92;;;2.90;99.90;;;;;;5015968;28;20072;-66
2023/01/03 04:03:46;;;;;;;8.32;4.70;;;2.90;99.90;;;;;;5035817;28;20087;-66
2023/01/03 04:06:28;;;;;;;7.05;3.83;;;3.00;99.90;;;;;;5035296;28;20065;-66
2023/01/03 04:08:54;;;;;;;8.25;3.25;;;3.00;99.90;;;;;;5019766;28;20112;-66
2023/01/03 04:11:19;;;;;;;9.95;4.47;;;3.00;99.90;;;;;;5017472;28;20136;-66
2023/01/03 04:13:45;;;;;;;8.32;4.60;;;2.80;99.90;;;;;;5035566;28;20038;-66
2023/01/03 04:16:11;;;;;;;11.05;5.00;;;3.00;99.90;;;;;;5035548;28;20041;-66
2023/01/03 04:18:36;;;;;;;9.90;5.30;;;3.00;99.90;;;;;;5035445;28;20048;-67
2023/01/03 04:21:02;;;;;;;9.85;4.07;;;3.00;99.90;;;;;;5035422;28;20042;-66
2023/01/03 04:23:27;;;;;;;8.57;4.22;;;3.90;99.90;;;;;;5034881;28;20434;-66
2023/01/03 04:25:53;;;;;;;10.70;4.85;;;3.00;99.90;;;;;;5017735;28;20397;-67
2023/01/03 04:28:19;;;;;;;12.93;4.68;;;3.10;99.90;;;;;;5035312;28;20038;-66
2023/01/03 04:30:45;;;;;;;6.63;4.25;;;3.10;99.90;;;;;;5017150;28;20042;-66
2023/01/03 04:33:11;;;;;;;7.63;4.82;;;3.10;99.90;;;;;;5035184;28;20030;-66
2023/01/03 04:35:37;;;;;;;11.10;5.47;;;3.10;99.90;;;;;;5035151;28;20087;-66
2023/01/03 04:38:04;;;;;;;11.10;4.97;;;3.10;99.90;;;;;;5017439;28;20095;-66
2023/01/03 04:40:32;;;;;;;7.85;4.38;;;3.10;99.90;;;;;;5035052;28;20120;-66
2023/01/03 04:45:41;;;;;;;11.65;4.60;;;3.20;99.90;;;;;;5035024;28;20046;-66
2023/01/03 04:48:07;;;;;;;15.02;6.15;;;3.20;99.90;;;;;;5034893;28;20040;-66
2023/01/03 04:50:33;;;;;;;11.32;5.57;;;3.20;99.90;;;;;;5034810;28;20115;-66
2023/01/03 04:52:58;;;;;;;15.68;5.95;;;3.20;99.90;;;;;;5034621;28;20083;-66
2023/01/03 04:55:24;;;;;;;9.52;4.82;;;3.20;99.90;;;;;;5034747;28;20042;-66
2023/01/03 04:57:50;;;;;;;12.10;5.32;;;3.10;99.90;;;;;;5034781;28;20113;-66
2023/01/03 05:00:16;;;;;;;13.55;5.80;;;3.20;99.90;;;;;;5034665;28;20063;-67
2023/01/03 05:02:42;;;;;;;14.68;6.25;;;3.20;99.90;;;;;;5034454;28;20073;-66
2023/01/03 05:05:08;;;;;;;11.95;6.05;;;3.20;99.90;;;;;;5034481;28;20256;-66
2023/01/03 05:07:34;;;;;;;12.45;6.10;;;3.30;99.90;;;;;;5034313;28;20060;-66
2023/01/03 05:09:59;;;;;;;10.52;5.78;;;3.30;99.90;;;;;;5016543;28;20045;-66
2023/01/03 05:12:26;;;;;;;13.57;6.63;;;3.30;99.90;;;;;;5034331;28;20042;-66
2023/01/03 05:14:51;;;;;;;7.80;4.85;;;3.30;99.90;;;;;;5016436;28;20443;-66
2023/01/03 05:17:19;;;;;;;11.30;5.68;;;3.40;99.90;;;;;;5034387;28;20037;-66
2023/01/03 05:27:59;;;;;;;12.43;5.70;;;3.50;99.90;;;;;;5034165;28;20503;-67
2023/01/03 05:30:24;;;;;;;9.25;4.90;;;3.50;99.90;;;;;;5033781;28;20077;-66
2023/01/03 05:32:50;;;;;;;12.25;5.88;;;3.50;99.90;;;;;;5016115;28;20080;-66
2023/01/03 05:35:15;;;;;;;12.23;5.75;;;3.50;99.90;;;;;;5033281;28;20029;-66
2023/01/03 05:37:41;;;;;;;13.73;5.78;;;3.50;99.90;;;;;;5033743;28;20045;-67
2023/01/03 05:40:07;;;;;;;11.82;5.65;;;3.60;99.90;;;;;;5033952;28;20104;-66
2023/01/03 05:42:34;;;;;;;11.88;5.63;;;3.60;99.90;;;;;;5033824;28;20494;-66
2023/01/03 05:44:59;;;;;;;14.75;6.03;;;3.60;99.90;;;;;;5033819;28;20042;-66
2023/01/03 05:47:25;;;;;;;11.27;5.20;;;3.60;99.90;;;;;;5033709;28;20503;-72
2023/01/03 05:49:50;;;;;;;10.50;5.95;;;3.30;99.90;;;;;;5015796;28;20037;-67
2023/01/03 05:52:16;;;;;;;13.50;6.20;;;3.60;99.90;;;;;;5033267;28;20405;-69
2023/01/03 05:54:41;;;;;;;13.15;5.90;;;3.60;99.90;;;;;;5015726;28;20124;-67
2023/01/03 05:57:07;;;;;;;15.02;6.25;;;3.60;99.90;;;;;;5033682;28;20033;-67
2023/01/03 05:59:33;;;;;;;9.50;5.45;;;3.50;99.90;;;;;;5015923;28;20048;-67
2023/01/03 06:01:58;;;;;;;12.43;5.85;;;3.50;99.90;;;;;;5033526;28;20044;-68
2023/01/03 06:04:24;;;;;;;13.80;5.47;;;3.50;99.90;;;;;;5015795;28;20055;-68
2023/01/03 06:06:50;;;;;;;11.80;6.72;;;3.40;99.90;;;;;;5015527;28;20053;-67
2023/01/03 06:09:15;;;;;;;11.13;5.88;;;3.30;99.90;;;;;;5015676;28;20508;-66
2023/01/03 06:11:41;;;;;;;10.68;5.90;;;3.20;99.90;;;;;;5015335;28;20046;-68
2023/01/03 06:14:07;;;;;;;12.52;5.85;;;3.20;99.90;;;;;;5033160;28;20053;-68
2023/01/03 06:19:16;;;;;;;14.57;5.22;;;3.10;99.90;;;;;;5015234;28;20045;-67
2023/01/03 06:21:42;;;;;;;12.45;5.78;;;3.00;99.90;;;;;;5033261;28;20041;-68
2023/01/03 06:24:08;;;;;;;11.63;5.63;;;2.90;99.90;;;;;;5015225;28;20102;-68
2023/01/03 06:26:34;;;;;;;11.85;5.78;;;2.90;99.90;;;;;;5032889;28;20046;-68
2023/01/03 06:29:00;;;;;;;18.77;6.65;;;2.90;99.90;;;;;;5033179;28;20037;-68
2023/01/03 06:31:26;;;;;;;12.10;6.03;;;2.70;99.90;;;;;;5033079;28;20171;-68
2023/01/03 06:33:52;;;;;;;13.23;6.22;;;2.80;99.90;;;;;;5031853;28;20504;-67
2023/01/03 06:36:20;;;;;;;14.82;6.30;;;2.80;99.90;;;;;;5033091;28;20041;-67
2023/01/03 06:38:46;;;;;;;13.52;5.68;;;2.70;99.90;;;;;;5032995;28;20041;-67
2023/01/03 06:41:13;;;;;;;12.95;6.75;;;2.70;99.90;;;;;;5015102;28;20443;-67
2023/01/03 06:43:39;;;;;;;11.32;5.03;;;2.70;99.90;;;;;;5015072;28;20475;-66
2023/01/03 06:54:22;;;;;;;11.48;6.70;;;2.80;99.90;;;;;;5036716;28;20128;-71
2023/01/03 06:56:49;;;;;;;13.38;6.82;;;2.50;99.90;;;;;;5019305;28;20401;-71
2023/01/03 06:59:14;;;;;;;13.90;6.65;;;2.50;99.90;;;;;;5019013;28;20053;-68
2023/01/03 07:01:40;;;;;;;13.73;6.75;;;2.50;99.90;;;;;;5036875;28;20476;-66
2023/01/03 07:04:06;;;;;;;13.18;7.00;;;2.50;99.90;;;;;;5036878;28;20041;-67
2023/01/03 07:06:31;;;;;;;12.30;6.38;;;2.50;99.90;;;;;;5036411;28;20084;-68
2023/01/03 07:08:57;;;;;;;9.95;6.22;;;2.50;99.90;;;;;;5036777;28;20045;-67
2023/01/03 07:11:22;;;;;;;17.20;7.30;;;2.50;99.90;;;;;;5036272;28;20120;-67
2023/01/03 07:13:57;;;;;;;9.98;5.72;;;2.40;99.90;;;;;;5036711;28;20041;-67
2023/01/03 07:16:24;;;;;;;6.32;4.13;;;2.40;99.90;;;;;;5036317;28;20047;-67
2023/01/03 07:18:50;;;;;;;14.05;5.60;;;2.40;99.90;;;;;;5036592;28;20496;-67
2023/01/03 07:21:15;;;;;;;11.90;5.88;;;2.30;99.90;;;;;;5036533;28;20116;-66
2023/01/03 07:23:41;;;;;;;11.68;6.43;;;2.30;99.90;;;;;;5018520;28;20037;-66
2023/01/03 07:26:07;;;;;;;11.32;6.00;;;2.30;99.90;;;;;;5018612;28;20045;-67
2023/01/03 07:28:33;;;;;;;14.18;6.38;;;2.30;99.90;;;;;;5036252;28;20056;-67
2023/01/03 07:31:03;;;;;;;9.15;6.40;;;2.30;99.90;;;;;;5036248;28;20403;-67
2023/01/03 07:33:29;;;;;;;10.18;6.13;;;2.30;99.90;;;;;;5036014;28;20038;-67
2023/01/03 07:36:04;;;;;;;14.40;7.60;;;2.30;99.90;;;;;;5035978;28;20044;-67
2023/01/03 07:38:29;;;;;;;13.98;6.38;;;2.20;99.90;;;;;;5035846;28;20039;-66
2023/01/03 07:40:59;;;;;;;12.18;6.18;;;2.20;99.90;;;;;;5035825;28;20477;-67
2023/01/03 07:43:36;;;;;;;14.23;6.90;;;2.20;99.90;;;;;;5036136;28;20044;-68
2023/01/03 07:46:08;;;;;;;12.50;6.78;;;2.20;99.90;;;;;;5018051;28;20128;-70
2023/01/03 07:48:34;;;;;;;10.10;6.00;;;2.20;99.90;;;;;;5001750;28;20060;-67
2023/01/03 07:51:01;;;;;;;9.35;5.95;;;2.20;99.90;;;;;;5035930;28;20072;-66
2023/01/03 07:53:27;;;;;;;13.65;7.25;;;2.20;99.90;;;;;;5035971;28;20108;-67
2023/01/03 07:55:53;;;;;;;15.15;7.32;;;2.10;99.90;;;;;;5035642;28;20045;-67
2023/01/03 07:58:19;;;;;;;16.55;7.28;;;2.20;99.90;;;;;;5034701;28;20037;-67
2023/01/03 08:00:45;;;;;;;16.42;6.25;;;2.10;99.90;;;;;;5017821;28;20382;-66
2023/01/03 08:03:11;;;;;;;14.75;6.95;;;2.20;99.90;;;;;;5017686;28;20037;-68
2023/01/03 08:05:36;;;;;;;15.30;7.90;;;2.20;99.90;;;;;;5035326;28;20155;-67
2023/01/03 08:08:03;;;;;;;12.07;7.05;;;2.10;99.90;;;;;;5017579;28;20056;-70
2023/01/03 08:13:16;;;;;;;15.02;7.38;;;2.20;99.90;;;;;;5017511;28;20132;-66
2023/01/03 08:15:48;;;;;;;14.05;7.35;;;2.20;99.90;;;;;;5017868;28;20042;-67
2023/01/03 08:18:22;;;;;;;12.75;8.10;;;2.10;99.90;;;;;;5017519;28;20104;-67
2023/01/03 08:20:47;;;;;;;15.98;7.35;;;2.00;99.90;;;;;;5017478;28;20048;-67
2023/01/03 08:23:13;;;;;;;11.50;6.88;;;1.90;99.90;;;;;;5017682;28;20033;-68
2023/01/03 08:25:39;;;;;;;13.48;7.20;;;1.90;99.90;;;;;;5035335;28;20034;-67
2023/01/03 08:28:06;;;;;;;10.70;6.55;;;1.80;99.90;;;;;;5017297;28;20048;-68
2023/01/03 08:30:34;;;;;;;11.23;6.90;;;1.80;99.90;;;;;;5035178;28;20129;-67
2023/01/03 08:33:02;;;;;;;10.65;5.07;;;1.90;99.90;;;;;;5035209;28;20041;-67
2023/01/03 08:35:33;;;;;;;8.90;4.95;;;1.70;99.90;;;;;;5035151;28;20460;-67
2023/01/03 08:38:00;;;;;;;8.07;4.75;;;1.60;99.90;;;;;;5017375;28;20049;-67
2023/01/03 08:40:26;;;;;;;7.53;4.60;;;1.60;99.90;;;;;;5035038;28;20044;-67
2023/01/03 08:42:52;;;;;;;7.72;4.88;;;1.50;99.90;;;;;;5017226;28;20041;-67
2023/01/03 08:45:18;;;;;;;8.65;4.25;;;1.50;99.90;;;;;;5034843;28;20091;-67
2023/01/03 08:47:45;;;;;;;6.68;4.43;;;1.50;99.90;;;;;;5035000;28;20083;-68
2023/01/03 08:50:12;;;;;;;8.95;4.57;;;1.50;99.90;;;;;;5016941;28;20435;-67
2023/01/03 08:52:37;;;;;;;10.23;5.25;;;1.50;99.90;;;;;;5034834;28;20489;-67
2023/01/03 08:55:04;;;;;;;7.88;4.40;;;1.60;99.90;;;;;;5016800;28;20045;-67
2023/01/03 08:57:30;;;;;;;15.82;5.03;;;1.60;99.90;;;;;;5034760;28;20053;-68
2023/01/03 08:59:55;;;;;;;8.15;3.95;;;1.60;99.90;;;;;;5034726;28;20033;-67
2023/01/03 09:02:21;;;;;;;7.13;3.97;;;1.70;99.90;;;;;;5034663;28;20042;-69
2023/01/03 09:04:47;;;;;;;10.63;5.28;;;1.70;99.90;;;;;;5034463;28;20499;-67
2023/01/03 09:07:12;;;;;;;9.23;4.93;;;1.80;99.90;;;;;;5034599;28;20073;-67
2023/01/03 09:09:38;;;;;;;9.65;5.05;;;1.90;99.90;;;;;;5016773;28;20045;-67
2023/01/03 09:12:03;;;;;;;16.25;5.55;;;2.00;99.90;;;;;;5016492;28;20076;-67
2023/01/03 09:14:30;;;;;;;10.77;4.82;;;2.10;99.90;;;;;;5034437;28;20033;-67
2023/01/03 09:16:56;;;;;;;27.67;5.90;;;2.20;99.90;;;;;;5016399;28;20049;-67
2023/01/03 09:19:21;;;;;;;25.35;6.15;;;2.30;99.90;;;;;;5034338;28;20116;-67
2023/01/03 09:21:47;;;;;;;27.40;5.45;;;2.40;99.90;;;;;;5034341;28;20065;-67
2023/01/03 09:24:13;;;;;;;12.95;5.88;;;2.50;99.90;;;;;;5034298;28;20469;-66
2023/01/03 09:26:38;;;;;;;19.33;5.75;;;2.60;99.90;;;;;;5033938;28;20049;-67
2023/01/03 09:29:04;;;;;;;20.65;6.82;;;2.70;99.90;;;;;;5034187;28;20131;-67
2023/01/03 09:31:33;;;;;;;12.50;6.55;;;2.70;99.90;;;;;;5016291;28;20448;-67
2023/01/03 09:33:59;;;;;;;16.27;6.95;;;2.80;99.90;;;;;;5016134;28;20037;-67
2023/01/03 09:36:25;;;;;;;15.65;7.13;;;2.90;99.90;;;;;;5016345;28;20049;-67
2023/01/03 09:38:51;;;;;;;9.65;5.90;;;3.00;99.90;;;;;;5034003;28;20044;-69
2023/01/03 09:41:21;;;;;;;16.13;7.88;;;3.00;99.90;;;;;;5034009;28;20473;-67
2023/01/03 09:43:49;;;;;;;19.27;8.07;;;3.20;99.90;;;;;;5033662;28;20044;-67
2023/01/03 09:46:21;;;;;;;17.10;7.95;;;3.20;99.90;;;;;;5016191;28;20045;-67
2023/01/03 09:48:47;;;;;;;;;;;3.40;99.90;;;;;;5034327;28;20045;-67
2023/01/03 10:05:28;;;;;;;20.27;8.57;;;4.00;99.90;;;;;;5033093;28;20053;-68
2023/01/03 10:08:03;;;;;;;23.17;9.43;;;4.10;99.90;;;;;;5033467;28;20049;-68
2023/01/03 10:11:16;;;;;;;19.05;10.15;;;4.10;99.90;;;;;;5015481;28;20414;-68
2023/01/03 10:14:27;;;;;;;22.92;9.65;;;4.30;99.90;;;;;;4933803;29;20051;-67
2023/01/03 10:17:18;;;;;;;28.65;11.18;;;4.40;99.90;;;;;;4933842;29;20058;-67
2023/01/03 10:19:56;;;;;;;;;;;4.30;99.90;;;;;;5010279;28;20053;-67
2023/01/03 10:22:27;;;;;;;24.35;10.63;;;4.40;99.90;;;;;;5015284;28;19916;-68
2023/01/03 10:25:01;;;;;;;16.98;8.75;;;4.40;99.90;;;;;;5015357;28;20451;-68
2023/01/03 10:27:42;;;;;;;22.60;10.50;;;4.50;99.90;;;;;;5033249;28;20080;-67
2023/01/03 10:30:17;;;;;;;16.05;8.82;;;4.40;99.90;;;;;;5015508;28;20512;-67
2023/01/03 10:32:42;;;;;;;22.13;10.65;;;4.50;99.90;;;;;;5033167;28;20488;-71
2023/01/03 10:35:19;;;;;;;21.15;10.45;;;4.80;99.90;;;;;;5015395;28;20093;-67
2023/01/03 10:37:45;;;;;;;19.48;9.88;;;4.60;99.90;;;;;;5015528;28;20436;-67
2023/01/03 10:40:12;;;;;;;28.45;12.23;;;4.60;99.90;;;;;;5015050;28;20037;-73
2023/01/03 10:42:40;;;;;;;24.42;10.88;;;4.70;99.90;;;;;;5015241;28;20056;-67
2023/01/03 10:45:18;;;;;;;24.75;10.32;;;4.70;99.90;;;;;;5015456;28;20045;-67
2023/01/03 10:47:49;;;;;;;23.70;9.45;;;4.70;99.90;;;;;;5015039;28;20091;-67
2023/01/03 10:50:19;;;;;;;;;;;4.70;99.90;;;;;;5015453;28;20405;-67
2023/01/03 10:52:47;;;;;;;21.25;9.73;;;4.80;99.90;;;;;;5032535;28;19921;-67
2023/01/03 10:55:17;;;;;;;21.15;10.02;;;4.80;99.90;;;;;;5033010;28;20041;-67
2023/01/03 10:57:59;;;;;;;29.65;11.02;;;4.80;99.90;;;;;;5015010;28;20091;-67
2023/01/03 11:00:30;;;;;;;24.50;11.40;;;4.90;99.90;;;;;;5014828;28;20037;-67
2023/01/03 11:03:10;;;;;;;21.23;10.10;;;5.00;99.90;;;;;;5032905;28;20061;-67
2023/01/03 11:05:37;;;;;;;21.50;11.13;;;5.00;99.90;;;;;;5014731;28;20049;-67
2023/01/03 11:08:12;;;;;;;20.30;9.98;;;5.10;99.90;;;;;;5032825;28;20077;-67
2023/01/03 11:10:54;;;;;;;19.00;10.32;;;5.30;99.90;;;;;;5032803;28;20401;-67
2023/01/03 11:13:36;;;;;;;22.52;10.80;;;5.40;99.90;;;;;;5032692;28;20076;-69
2023/01/03 11:16:11;;;;;;;25.35;11.68;;;5.40;99.90;;;;;;5014805;28;20041;-67
2023/01/03 11:18:37;;;;;;;24.88;12.43;;;5.40;99.90;;;;;;5014815;28;20041;-67
2023/01/03 11:21:22;;;;;;;23.27;12.65;;;5.40;99.90;;;;;;5032722;28;20481;-68
2023/01/03 11:24:06;;;;;;;22.38;10.30;;;5.40;99.90;;;;;;5032353;28;20045;-67
2023/01/03 11:26:38;;;;;;;23.30;10.60;;;5.40;99.90;;;;;;5032656;28;20543;-67
2023/01/03 11:29:29;;;;;;;25.45;11.25;;;5.40;99.90;;;;;;5032587;28;20045;-67
2023/01/03 11:32:20;;;;;;;25.10;10.00;;;5.40;99.90;;;;;;5032541;28;20124;-67
2023/01/03 11:35:18;;;;;;;21.77;11.10;;;5.50;99.90;;;;;;5018549;28;20084;-67
2023/01/03 11:37:56;;;;;;;25.92;12.38;;;5.50;99.90;;;;;;5018519;28;20549;-68
2023/01/03 11:40:30;;;;;;;23.50;9.77;;;5.50;99.90;;;;;;5035949;28;20042;-67
2023/01/03 11:43:15;;;;;;;21.23;11.15;;;5.60;99.90;;;;;;5018200;28;20041;-66
2023/01/03 11:45:58;;;;;;;19.02;10.68;;;5.60;99.90;;;;;;5036180;28;20085;-67
2023/01/03 11:48:42;;;;;;;21.67;10.70;;;5.70;99.90;;;;;;5036091;28;20493;-67
2023/01/03 11:51:12;;;;;;;23.27;9.98;;;5.70;99.90;;;;;;5017913;28;20049;-68
2023/01/03 11:53:54;;;;;;;31.17;11.68;;;5.80;99.90;;;;;;5035975;28;20064;-67
2023/01/03 11:56:44;;;;;;;20.55;10.63;;;5.80;99.90;;;;;;5036016;28;20033;-66
2023/01/03 11:59:16;;;;;;;25.33;10.57;;;5.80;99.90;;;;;;5018023;28;20049;-67
2023/01/03 12:02:00;;;;;;;22.42;10.70;;;5.90;99.90;;;;;;5035884;28;20041;-66
2023/01/03 12:04:44;;;;;;;23.60;10.45;;;5.90;99.90;;;;;;5017610;28;20046;-67
2023/01/03 12:07:18;;;;;;;19.17;9.95;;;5.80;99.90;;;;;;5035796;28;20406;-67
2023/01/03 12:10:03;;;;;;;18.90;9.55;;;5.90;99.90;;;;;;5035432;28;20045;-67
2023/01/03 12:12:32;;;;;;;22.27;10.65;;;5.90;99.90;;;;;;5035518;28;20401;-67
2023/01/03 12:15:03;;;;;;;20.30;9.88;;;5.90;99.90;;;;;;5035618;28;20056;-67
2023/01/03 12:17:44;;;;;;;20.90;10.65;;;5.90;99.90;;;;;;5035630;28;20120;-67
2023/01/03 12:20:18;;;;;;;16.30;9.55;;;5.90;99.90;;;;;;5035590;28;20038;-67
2023/01/03 12:23:27;;;;;;;15.93;9.98;;;5.90;99.90;;;;;;5035497;28;20519;-67
2023/01/03 12:25:58;;;;;;;13.82;8.38;;;5.90;99.90;;;;;;5001062;28;20099;-67
2023/01/03 12:28:30;;;;;;;19.83;9.45;;;6.00;99.90;;;;;;5035441;28;20508;-67
2023/01/03 12:31:16;;;;;;;19.58;10.25;;;6.00;99.90;;;;;;5035243;28;20053;-67
2023/01/03 12:33:55;;;;;;;16.20;9.13;;;6.00;99.90;;;;;;5000968;28;20077;-67
2023/01/03 12:36:36;;;;;;;13.88;8.38;;;6.00;99.90;;;;;;5034860;28;20049;-67
2023/01/03 12:39:32;;;;;;;15.87;8.07;;;6.10;99.90;;;;;;5035182;28;20033;-67
2023/01/03 12:42:05;;;;;;;16.40;8.95;;;6.10;99.90;;;;;;5017104;28;20052;-68
2023/01/03 12:44:37;;;;;;;15.77;8.50;;;6.10;99.90;;;;;;5034435;28;20045;-67
2023/01/03 12:47:05;;;;;;;12.43;8.07;;;6.10;99.90;;;;;;5035026;28;20041;-67
2023/01/03 12:49:37;;;;;;;24.10;7.60;;;6.10;99.90;;;;;;5034880;28;20034;-67
2023/01/03 12:52:02;;;;;;;12.93;7.82;;;6.20;99.90;;;;;;5034851;28;20049;-67
2023/01/03 12:54:45;;;;;;;16.38;7.97;;;6.20;99.90;;;;;;5034818;28;20507;-72
2023/01/03 12:57:36;;;;;;;20.38;8.23;;;6.20;99.90;;;;;;5016721;28;20037;-71
2023/01/03 13:00:36;;;;;;;15.02;7.18;;;6.20;99.90;;;;;;5016705;28;20056;-67
2023/01/03 13:03:24;;;;;;;13.67;7.73;;;6.20;99.90;;;;;;5008928;28;20401;-67
2023/01/03 13:05:52;;;;;;;15.50;7.65;;;6.20;99.90;;;;;;5034377;28;20073;-67
2023/01/03 13:08:31;;;;;;;13.07;6.18;;;6.20;99.90;;;;;;5034607;28;20099;-68
2023/01/03 13:11:02;;;;;;;14.57;6.47;;;6.20;99.90;;;;;;5034502;28;20045;-67
2023/01/03 13:13:29;;;;;;;14.15;6.78;;;6.30;99.90;;;;;;5034281;28;20072;-68
2023/01/03 13:15:55;;;;;;;13.13;5.45;;;6.30;99.90;;;;;;5034219;28;20056;-68
2023/01/03 13:18:20;;;;;;;12.45;5.68;;;6.30;99.90;;;;;;5034461;28;20037;-67
2023/01/03 13:20:47;;;;;;;14.98;6.90;;;6.30;99.90;;;;;;5034044;28;20046;-67
2023/01/03 13:23:31;;;;;;;15.88;6.28;;;6.30;99.90;;;;;;5034409;28;20095;-67
2023/01/03 13:26:03;;;;;;;12.35;6.05;;;6.40;99.90;;;;;;5034042;28;20397;-67
2023/01/03 13:28:36;;;;;;;10.95;5.57;;;6.40;99.90;;;;;;5033931;28;20120;-67
2023/01/03 13:31:17;;;;;;;10.75;5.70;;;6.40;99.90;;;;;;5016273;28;20056;-67
2023/01/03 13:34:08;;;;;;;11.13;5.68;;;6.40;99.90;;;;;;5034061;28;20133;-68
2023/01/03 13:37:05;;;;;;;14.27;6.43;;;6.50;99.90;;;;;;5034079;28;20400;-67
2023/01/03 13:39:41;;;;;;;12.00;5.82;;;6.50;99.90;;;;;;5033991;28;20048;-68
2023/01/03 13:42:20;;;;;;;11.30;6.35;;;6.50;99.90;;;;;;5033973;28;20095;-67
2023/01/03 13:44:46;;;;;;;11.57;5.97;;;6.50;99.90;;;;;;5033859;28;20040;-68
2023/01/03 13:47:47;;;;;;;12.60;5.63;;;6.50;99.90;;;;;;5016223;28;20497;-67
2023/01/03 13:50:28;;;;;;;16.52;6.25;;;6.60;99.90;;;;;;4991106;28;20057;-67
2023/01/03 13:52:56;;;;;;;;;;;6.60;99.90;;;;;;5033889;28;20049;-67
2023/01/03 13:55:48;;;;;;;11.20;6.63;;;6.60;99.90;;;;;;5032785;28;19917;-67
2023/01/03 13:58:32;;;;;;;10.85;6.07;;;6.60;99.90;;;;;;5015667;28;20408;-67
2023/01/03 14:01:02;;;;;;;13.65;5.55;;;6.60;99.90;;;;;;5033258;28;20056;-67
2023/01/03 14:03:45;;;;;;;14.20;6.60;;;6.90;99.90;;;;;;5033543;28;20051;-67
2023/01/03 14:06:31;;;;;;;14.88;5.90;;;6.60;99.90;;;;;;5033212;28;20053;-67
2023/01/03 14:09:15;;;;;;;11.82;5.75;;;6.60;99.90;;;;;;5015527;28;20085;-67
2023/01/03 14:12:17;;;;;;;10.32;6.18;;;6.60;99.90;;;;;;5033479;28;20092;-67